createdAt,value
2022-09-30T13:41:55.470Z,100740.47
2022-09-30T13:44:40.005Z,100745.66
2022-09-30T13:47:29.853Z,100742.09
2022-09-30T13:50:04.879Z,100729.88
2022-09-30T13:52:34.708Z,100719.47
2022-09-30T13:55:18.661Z,100734.16
2022-09-30T13:58:04.670Z,100719.44
2022-09-30T14:00:57.058Z,100734.19
2022-09-30T14:03:59.367Z,100728.94
2022-09-30T14:06:41.978Z,100730.72
2022-09-30T14:09:23.656Z,100730.69
2022-09-30T14:12:16.421Z,100733.13
2022-09-30T14:15:07.890Z,100726.97
2022-09-30T14:18:05.423Z,100720.78
2022-09-30T14:21:02.740Z,100719.78
2022-09-30T14:23:29.812Z,100716.28
2022-09-30T14:26:23.907Z,100712.63
2022-09-30T14:29:02.245Z,100717.59
2022-09-30T14:31:32.234Z,100711.88
2022-09-30T14:33:59.978Z,100720.63
2022-09-30T14:36:27.082Z,100708.47
2022-09-30T14:38:59.432Z,100711.22
2022-09-30T14:41:28.940Z,100706.84
2022-09-30T14:44:04.472Z,100695.75
2022-09-30T14:46:38.814Z,100696.97
2022-09-30T14:49:15.137Z,100699.81
2022-09-30T14:51:45.084Z,100689.56
2022-09-30T14:54:23.609Z,100688.47
2022-09-30T14:56:53.256Z,100681.50
2022-09-30T14:59:20.261Z,100689.31
2022-09-30T15:01:51.210Z,100688.66
2022-09-30T15:04:22.101Z,100697.81
2022-09-30T15:06:51.228Z,100688.66
2022-09-30T15:09:32.573Z,100684.69
2022-09-30T15:12:05.758Z,100703.22
2022-09-30T15:14:33.098Z,100702.53
2022-09-30T15:17:05.215Z,100707.84
2022-09-30T15:19:34.960Z,100703.63
2022-09-30T15:22:04.804Z,100710.72
2022-09-30T15:24:33.132Z,100716.91
2022-09-30T15:27:01.222Z,100711.69
2022-09-30T15:29:28.451Z,100716.97
2022-09-30T15:32:15.971Z,100717.06
2022-09-30T15:34:46.800Z,100713.63
2022-09-30T15:37:22.826Z,100711.03
2022-09-30T15:40:09.297Z,100718.84
2022-09-30T15:42:45.721Z,100697.22
2022-09-30T15:45:35.440Z,100712.91
2022-09-30T15:48:07.329Z,100709.47
2022-09-30T15:50:53.896Z,100714.72
2022-09-30T15:53:25.621Z,100714.78
2022-09-30T15:55:56.012Z,100713.06
2022-09-30T15:58:40.317Z,100712.19
2022-09-30T16:01:21.469Z,100713.09
2022-09-30T16:03:59.454Z,100712.22
2022-09-30T16:06:35.402Z,100706.16
2022-09-30T16:09:08.386Z,100705.28
2022-09-30T16:11:41.063Z,100709.63
2022-09-30T16:14:12.496Z,100703.53
2022-09-30T16:16:39.610Z,100706.16
2022-09-30T16:19:20.287Z,100700.94
2022-09-30T16:21:51.426Z,100702.69
2022-09-30T16:24:21.348Z,100707.03
2022-09-30T16:26:50.043Z,100687.06
2022-09-30T16:29:17.918Z,100689.66
2022-09-30T16:31:49.524Z,100674.06
2022-09-30T16:34:24.155Z,100687.94
2022-09-30T16:36:53.721Z,100690.53
2022-09-30T16:39:21.317Z,100686.19
2022-09-30T16:41:49.755Z,100686.19
2022-09-30T16:44:17.078Z,100687.06
2022-09-30T16:46:44.063Z,100685.31
2022-09-30T16:49:15.915Z,100673.16
2022-09-30T16:51:43.674Z,100675.75
2022-09-30T16:54:12.274Z,100677.47
2022-09-30T16:56:39.425Z,100679.19
2022-09-30T16:59:17.662Z,100668.75
2022-09-30T17:01:45.921Z,100662.69
2022-09-30T17:04:15.329Z,100651.41
2022-09-30T17:06:44.164Z,100655.72
2022-09-30T17:09:11.191Z,100655.69
2022-09-30T17:11:38.334Z,100660.88
2022-09-30T17:14:06.929Z,100661.66
2022-09-30T17:16:34.373Z,100654.72
2022-09-30T17:19:01.842Z,100653.00
2022-09-30T17:21:28.869Z,100656.44
2022-09-30T17:23:56.504Z,100660.78
2022-09-30T17:26:23.509Z,100656.41
2022-09-30T17:28:50.558Z,100651.19
2022-09-30T17:31:18.254Z,100665.88
2022-09-30T17:33:46.072Z,100658.06
2022-09-30T17:36:14.049Z,100659.75
2022-09-30T17:38:41.357Z,100651.97
2022-09-30T17:41:31.714Z,100651.06
2022-09-30T17:44:02.356Z,100643.22
2022-09-30T17:46:41.260Z,100645.81
2022-09-30T17:49:09.043Z,100648.38
2022-09-30T17:51:37.659Z,100636.22
2022-09-30T17:54:07.799Z,100637.94
2022-09-30T17:56:34.924Z,100640.50
2022-09-30T17:59:02.663Z,100637.88
2022-09-30T18:01:31.104Z,100628.31
2022-09-30T18:04:00.326Z,100630.03
2022-09-30T18:06:28.629Z,100632.59
2022-09-30T18:08:55.899Z,100636.00
2022-09-30T18:11:28.218Z,100642.06
2022-09-30T18:13:58.040Z,100636.81
2022-09-30T18:16:30.164Z,100634.22
2022-09-30T18:22:26.943Z,100632.44
2022-09-30T18:25:12.320Z,100622.91
2022-09-30T18:27:39.374Z,100619.44
2022-09-30T18:30:08.163Z,100620.28
2022-09-30T18:32:35.240Z,100616.84
2022-09-30T18:35:04.545Z,100605.59
2022-09-30T18:37:33.141Z,100604.72
2022-09-30T18:40:00.235Z,100609.00
2022-09-30T18:42:28.344Z,100596.84
2022-09-30T18:44:55.468Z,100597.75
2022-09-30T18:47:22.472Z,100581.22
2022-09-30T18:49:49.482Z,100585.63
2022-09-30T18:52:17.288Z,100574.44
2022-09-30T18:54:45.618Z,100563.25
2022-09-30T18:57:12.632Z,100564.09
2022-09-30T18:59:40.017Z,100558.03
2022-09-30T19:02:07.325Z,100541.53
2022-09-30T19:04:35.136Z,100549.34
2022-09-30T19:07:02.115Z,100548.50
2022-09-30T19:09:29.163Z,100545.03
2022-09-30T19:11:56.193Z,100533.78
2022-09-30T19:14:23.805Z,100532.94
2022-09-30T19:16:52.260Z,100532.94
2022-09-30T19:19:20.428Z,100526.88
2022-09-30T19:21:48.609Z,100526.00
2022-09-30T19:24:17.150Z,100528.59
2022-09-30T19:26:46.727Z,100517.38
2022-09-30T19:29:13.776Z,100520.00
2022-09-30T19:31:42.830Z,100517.44
2022-09-30T19:34:11.047Z,100507.91
2022-09-30T19:36:49.812Z,100511.34
2022-09-30T19:39:18.754Z,100497.50
2022-09-30T19:41:49.929Z,100507.94
2022-09-30T19:44:19.040Z,100504.50
2022-09-30T19:46:54.780Z,100506.25
2022-09-30T19:49:23.570Z,100494.13
2022-09-30T19:51:54.295Z,100496.75
2022-09-30T19:54:37.069Z,100495.91
2022-09-30T19:57:07.120Z,100483.78
2022-09-30T19:59:35.065Z,100481.25
2022-09-30T20:02:02.389Z,100473.47
2022-09-30T20:04:30.083Z,100476.91
2022-09-30T20:06:57.069Z,100458.75
2022-09-30T20:09:24.280Z,100455.28
2022-09-30T20:11:51.478Z,100457.03
2022-09-30T20:14:36.869Z,100444.03
2022-09-30T20:17:03.874Z,100444.03
2022-09-30T20:19:30.894Z,100448.41
2022-09-30T20:21:58.251Z,100435.41
2022-09-30T20:24:25.953Z,100424.13
2022-09-30T20:26:52.938Z,100440.56
2022-09-30T20:29:20.538Z,100429.31
2022-09-30T20:31:49.044Z,100423.31
2022-09-30T20:34:17.757Z,100420.72
2022-09-30T20:36:47.116Z,100408.56
2022-09-30T20:39:14.268Z,100412.91
2022-09-30T20:41:41.742Z,100413.78
2022-09-30T20:44:11.934Z,100405.09
2022-09-30T20:46:41.349Z,100404.22
2022-09-30T20:49:09.094Z,100402.50
2022-09-30T20:51:36.245Z,100394.72
2022-09-30T20:54:03.508Z,100387.81
2022-09-30T20:56:49.633Z,100390.41
2022-09-30T20:59:17.702Z,100393.84
2022-09-30T21:01:44.744Z,100386.94
2022-09-30T21:04:12.237Z,100372.19
2022-09-30T21:06:39.544Z,100386.94
2022-09-30T21:09:06.877Z,100373.06
2022-09-30T21:11:34.221Z,100373.06
2022-09-30T21:14:01.768Z,100373.06
2022-09-30T21:16:29.627Z,100379.16
2022-09-30T21:18:56.798Z,100374.81
2022-09-30T21:21:25.680Z,100382.56
2022-09-30T21:23:57.370Z,100382.56
2022-09-30T21:26:24.795Z,100374.78
2022-09-30T21:28:55.862Z,100372.16
2022-09-30T21:31:27.405Z,100367.81
2022-09-30T21:33:58.090Z,100358.31
2022-09-30T21:36:26.639Z,100366.94
2022-09-30T21:38:54.855Z,100351.31
2022-09-30T21:41:22.796Z,100361.69
2022-09-30T21:43:49.845Z,100359.91
2022-09-30T21:46:18.544Z,100359.00
2022-09-30T21:48:48.343Z,100358.09
2022-09-30T21:51:16.704Z,100352.88
2022-09-30T21:53:43.761Z,100344.16
2022-09-30T21:56:12.175Z,100333.72
2022-09-30T21:58:39.372Z,100337.19
2022-09-30T22:01:07.263Z,100326.78
2022-09-30T22:03:39.486Z,100329.34
2022-09-30T22:06:08.514Z,100324.97
2022-09-30T22:08:40.010Z,100318.03
2022-09-30T22:11:11.043Z,100311.03
2022-09-30T22:13:46.991Z,100314.47
2022-09-30T22:16:19.712Z,100316.16
2022-09-30T22:18:47.054Z,100315.28
2022-09-30T22:21:15.989Z,100314.38
2022-09-30T22:23:49.642Z,100316.13
2022-09-30T22:26:23.140Z,100315.25
2022-09-30T22:28:56.602Z,100311.75
2022-09-30T22:31:26.220Z,100310.88
2022-09-30T22:34:17.378Z,100296.09
2022-09-30T22:37:03.343Z,100298.75
2022-09-30T22:39:31.210Z,100294.41
2022-09-30T22:41:58.796Z,100281.41
2022-09-30T22:44:31.757Z,100294.34
2022-09-30T22:47:00.133Z,100288.28
2022-09-30T22:49:28.165Z,100291.69
2022-09-30T22:51:56.896Z,100282.19
2022-09-30T22:54:26.041Z,100272.63
2022-09-30T22:56:54.780Z,100278.78
2022-09-30T22:59:23.567Z,100262.31
2022-09-30T23:01:51.398Z,100281.31
2022-09-30T23:04:18.629Z,100287.34
2022-09-30T23:06:53.759Z,100287.31
2022-09-30T23:09:21.358Z,100264.84
2022-09-30T23:11:53.196Z,100263.16
2022-09-30T23:14:23.588Z,100252.84
2022-09-30T23:16:51.550Z,100240.75
2022-09-30T23:19:19.813Z,100245.03
2022-09-30T23:21:47.003Z,100250.19
2022-09-30T23:24:18.866Z,100247.63
2022-09-30T23:26:48.790Z,100235.53
2022-09-30T23:29:16.921Z,100227.78
2022-09-30T23:31:43.975Z,100223.50
2022-09-30T23:34:11.032Z,100207.09
2022-09-30T23:36:38.399Z,100219.16
2022-09-30T23:39:13.497Z,100215.66
2022-09-30T23:41:40.857Z,100199.19
2022-09-30T23:44:09.963Z,100200.94
2022-09-30T23:46:37.097Z,100200.06
2022-09-30T23:49:04.166Z,100186.25
2022-09-30T23:51:34.245Z,100177.63
2022-09-30T23:54:02.252Z,100155.09
2022-09-30T23:56:29.474Z,100151.63
2022-09-30T23:58:57.348Z,100159.41
